Time;durP1;ratioP1;P1;durP2;ratioP2;P2;SDS_P1;SDS_P2;PMS_P1;PMS_P2;Temp;Humidity;BMP_temperature;BMP_pressure;BME280_temperature;BME280_humidity;BME280_pressure;Samples;Min_cycle;Max_cycle;Signal;HPM_P1;HPM_P2
2023/04/01 00:01:09;;;;;;;2.83;1.37;;;;;;;11.78;91.87;98544.38;5009837;28;20456;-54
2023/04/01 00:03:36;;;;;;;3.20;1.90;;;;;;;11.77;91.96;98543.53;5018051;28;20534;-55
2023/04/01 00:06:03;;;;;;;1.00;0.50;;;;;;;11.81;91.27;98542.44;5021998;28;20838;-55
2023/04/01 00:08:30;;;;;;;5.60;0.77;;;;;;;12.00;91.04;98544.81;5024654;28;20491;-54
2023/04/01 00:10:57;;;;;;;3.23;0.70;;;;;;;11.94;90.44;98544.34;5020695;28;20953;-54
2023/04/01 00:13:26;;;;;;;1.00;0.50;;;;;;;11.83;90.50;98542.34;5018056;28;20563;-54
2023/04/01 00:15:54;;;;;;;0.63;0.50;;;;;;;11.78;91.35;98542.59;5021479;28;20448;-54
2023/04/01 00:18:22;;;;;;;1.03;1.03;;;;;;;11.73;91.85;98547.34;5024616;28;20457;-54
2023/04/01 00:20:51;;;;;;;0.60;0.37;;;;;;;11.78;91.60;98552.38;5021522;28;20478;-54
2023/04/01 00:23:19;;;;;;;2.13;0.57;;;;;;;11.72;90.87;98532.31;5017858;28;20918;-54
2023/04/01 00:25:47;;;;;;;1.17;0.57;;;;;;;11.81;90.80;98537.13;5020021;28;20839;-54
2023/04/01 00:28:18;;;;;;;0.77;0.30;;;;;;;11.70;91.41;98539.56;5024295;28;20500;-54
2023/04/01 00:30:44;;;;;;;1.27;0.83;;;;;;;11.85;90.55;98535.97;5027911;28;20501;-54
2023/04/01 00:33:11;;;;;;;0.60;0.60;;;;;;;11.72;90.95;98529.66;5017065;28;20471;-54
2023/04/01 00:35:39;;;;;;;1.43;0.50;;;;;;;11.78;91.17;98541.72;5019223;28;20448;-55
2023/04/01 00:38:06;;;;;;;0.80;0.80;;;;;;;11.90;90.63;98540.16;5023950;28;20440;-54
2023/04/01 00:40:36;;;;;;;1.83;0.90;;;;;;;11.61;90.98;98540.09;5023307;28;20451;-55
2023/04/01 00:43:10;;;;;;;0.30;0.20;;;;;;;11.65;90.77;98532.78;5017074;28;20476;-55
2023/04/01 00:45:39;;;;;;;0.50;0.37;;;;;;;11.83;91.18;98537.88;5016976;28;20456;-54
2023/04/01 00:48:11;;;;;;;0.40;0.30;;;;;;;11.64;90.93;98529.25;5022174;28;20496;-54
2023/04/01 00:50:42;;;;;;;2.40;0.77;;;;;;;11.81;90.37;98533.59;5024004;28;20491;-55
2023/04/01 00:53:09;;;;;;;0.90;0.90;;;;;;;11.70;90.49;98533.38;5003214;28;20477;-54
2023/04/01 00:55:40;;;;;;;1.10;0.93;;;;;;;11.93;90.09;98530.19;5023711;28;20471;-54
2023/04/01 00:58:13;;;;;;;0.50;0.30;;;;;;;11.78;90.05;98531.94;5021449;28;20795;-54
2023/04/01 01:00:40;;;;;;;0.80;0.40;;;;;;;11.66;90.91;98526.53;5028082;28;20482;-54
2023/04/01 01:03:07;;;;;;;1.03;0.93;;;;;;;11.65;91.71;98531.00;5018398;28;20559;-53
2023/04/01 01:06:02;;;;;;;1.37;0.40;;;;;;;11.69;90.59;98529.00;5023826;28;20488;-54
2023/04/01 01:08:50;;;;;;;0.60;0.40;;;;;;;11.63;90.77;98530.22;5023411;28;20491;-54
2023/04/01 01:11:24;;;;;;;0.40;0.30;;;;;;;11.50;91.60;98521.28;5022554;28;20471;-54
2023/04/01 01:14:05;;;;;;;0.80;0.57;;;;;;;11.48;91.28;98521.38;5003918;28;20483;-54
2023/04/01 01:16:40;;;;;;;5.00;1.03;;;;;;;11.69;91.47;98527.19;5016286;28;21137;-53
2023/04/01 01:19:22;;;;;;;0.53;0.30;;;;;;;11.46;91.62;98530.41;5020023;28;20594;-53
2023/04/01 01:22:20;;;;;;;9.90;0.83;;;;;;;11.64;90.80;98528.41;5023263;28;20453;-54
2023/04/01 01:25:02;;;;;;;0.40;0.20;;;;;;;11.52;91.36;98527.38;5023490;28;20476;-54
2023/04/01 01:27:35;;;;;;;1.53;0.50;;;;;;;11.40;92.16;98526.31;5021889;28;20460;-54
2023/04/01 01:30:17;;;;;;;0.50;0.40;;;;;;;11.69;91.76;98527.19;5022058;28;20451;-54
2023/04/01 01:32:53;;;;;;;0.50;0.40;;;;;;;11.54;92.61;98526.34;5016207;28;20483;-54
2023/04/01 01:35:31;;;;;;;0.73;0.53;;;;;;;11.62;91.95;98530.31;5020368;28;20475;-54
2023/04/01 01:38:05;;;;;;;0.30;0.30;;;;;;;11.59;91.85;98520.72;5022379;28;20453;-53
2023/04/01 01:40:34;;;;;;;0.50;0.40;;;;;;;11.64;92.20;98517.75;5022177;28;21008;-54
2023/04/01 01:43:08;;;;;;;0.43;0.27;;;;;;;11.54;91.74;98518.34;5016190;28;20456;-54
2023/04/01 01:45:39;;;;;;;1.53;0.53;;;;;;;11.53;91.46;98523.78;5016065;28;20452;-54
2023/04/01 01:48:09;;;;;;;0.70;0.70;;;;;;;11.52;92.30;98520.25;5021197;28;20499;-53
2023/04/01 01:50:37;;;;;;;0.43;0.37;;;;;;;11.44;92.74;98517.19;5023333;28;20814;-54
2023/04/01 01:53:10;;;;;;;0.43;0.30;;;;;;;11.42;92.70;98524.41;5001898;28;20482;-54
2023/04/01 01:55:39;;;;;;;1.57;0.40;;;;;;;11.48;92.66;98520.50;5022920;28;20511;-53
2023/04/01 01:58:19;;;;;;;11.40;0.43;;;;;;;11.44;92.62;98517.19;5020018;28;20467;-53
2023/04/01 02:00:53;;;;;;;0.40;0.20;;;;;;;11.43;92.74;98518.13;5027129;28;20452;-53
2023/04/01 02:03:21;;;;;;;0.90;0.50;;;;;;;11.34;93.40;98512.50;5015913;28;20535;-53
2023/04/01 02:05:51;;;;;;;6.23;0.40;;;;;;;11.50;93.54;98511.47;5022113;28;20452;-53
2023/04/01 02:08:24;;;;;;;6.40;1.77;;;;;;;11.43;93.34;98512.81;5022359;28;20491;-53
2023/04/01 02:11:05;;;;;;;4.33;0.67;;;;;;;11.31;93.49;98512.69;5018250;28;20475;-53
2023/04/01 02:13:44;;;;;;;1.73;0.73;;;;;;;11.40;93.41;98515.66;5015505;28;21026;-54
2023/04/01 02:16:20;;;;;;;4.53;0.50;;;;;;;11.35;94.47;98506.25;5016687;28;20482;-54
2023/04/01 02:18:53;;;;;;;0.40;0.30;;;;;;;11.31;94.27;98524.19;5004511;28;20447;-53
2023/04/01 02:21:21;;;;;;;1.37;0.77;;;;;;;11.44;94.27;98511.88;5015692;28;20452;-53
2023/04/01 02:23:49;;;;;;;0.93;0.60;;;;;;;11.26;93.98;98513.84;5020288;28;20530;-53
2023/04/01 02:26:16;;;;;;;4.20;1.57;;;;;;;11.38;94.00;98508.75;5022486;28;20460;-53
2023/04/01 02:28:46;;;;;;;0.90;0.50;;;;;;;11.40;94.05;98510.34;5017610;28;20509;-53
2023/04/01 02:31:14;;;;;;;1.40;0.50;;;;;;;11.34;94.40;98504.53;5022478;28;20829;-53
2023/04/01 02:33:42;;;;;;;2.87;0.70;;;;;;;11.44;94.62;98509.22;5018545;28;20471;-52
2023/04/01 02:36:15;;;;;;;0.40;0.40;;;;;;;11.35;95.15;98506.25;5015191;28;20510;-53
2023/04/01 02:38:44;;;;;;;2.87;0.90;;;;;;;11.25;94.64;98497.97;5018380;28;20954;-53
2023/04/01 02:41:11;;;;;;;6.03;0.70;;;;;;;11.35;94.61;98506.25;5022359;28;20463;-53
2023/04/01 02:43:37;;;;;;;2.10;0.40;;;;;;;11.36;94.70;98494.66;5019829;28;20494;-53
2023/04/01 02:46:06;;;;;;;1.00;0.83;;;;;;;11.19;94.86;98501.00;5015422;28;20452;-53
2023/04/01 02:48:32;;;;;;;0.50;0.30;;;;;;;11.41;94.09;98498.75;5016498;28;21005;-53
2023/04/01 02:50:59;;;;;;;0.60;0.30;;;;;;;11.45;94.24;98497.63;5025556;28;20824;-53
2023/04/01 02:53:25;;;;;;;8.30;0.60;;;;;;;11.29;94.06;98499.50;5005660;28;20480;-54
2023/04/01 02:55:52;;;;;;;12.40;0.60;;;;;;;11.27;94.32;98488.97;5026366;28;20452;-52
2023/04/01 02:58:19;;;;;;;7.87;1.13;;;;;;;11.28;94.14;98489.81;5024957;28;20451;-53
2023/04/01 03:00:45;;;;;;;0.40;0.20;;;;;;;11.40;93.80;98496.19;5030782;28;21006;-52
2023/04/01 03:03:13;;;;;;;0.50;0.30;;;;;;;11.37;93.48;98493.69;5019941;28;20846;-53
2023/04/01 03:05:40;;;;;;;0.40;0.20;;;;;;;11.43;93.65;98483.56;5026152;28;20495;-53
2023/04/01 03:08:06;;;;;;;0.80;0.33;;;;;;;11.39;93.47;98483.84;5025148;28;20455;-54
2023/04/01 03:10:32;;;;;;;4.83;0.50;;;;;;;11.53;93.35;98490.03;5019035;28;20541;-53
2023/04/01 03:12:59;;;;;;;0.30;0.20;;;;;;;11.37;94.44;98488.38;5019800;28;20456;-53
2023/04/01 03:15:25;;;;;;;0.40;0.30;;;;;;;11.48;93.98;98486.78;5025517;28;20464;-54
2023/04/01 03:17:52;;;;;;;0.50;0.40;;;;;;;11.39;95.49;98492.69;5024766;28;20451;-53
2023/04/01 03:20:19;;;;;;;1.17;0.60;;;;;;;11.36;95.54;98487.53;5019244;28;20496;-54
2023/04/01 03:22:46;;;;;;;0.60;0.30;;;;;;;11.55;95.87;98489.94;5019463;28;21055;-53
2023/04/01 03:25:13;;;;;;;0.73;0.50;;;;;;;11.21;96.89;98488.44;5025759;28;20571;-52
2023/04/01 03:27:39;;;;;;;1.03;0.60;;;;;;;11.37;96.11;98483.91;5024827;28;20455;-53
2023/04/01 03:30:06;;;;;;;0.70;0.60;;;;;;;11.41;95.84;98490.78;5024090;28;20529;-53
2023/04/01 03:32:33;;;;;;;0.40;0.40;;;;;;;11.61;95.82;98486.88;5018946;28;20539;-53
2023/04/01 03:34:59;;;;;;;1.23;1.13;;;;;;;11.51;96.12;98493.72;5024145;28;20859;-53
2023/04/01 03:37:26;;;;;;;0.43;0.27;;;;;;;11.40;96.71;98493.53;5024885;28;20459;-53
2023/04/01 03:39:53;;;;;;;0.40;0.30;;;;;;;11.31;96.93;98488.75;5018245;28;20598;-54
2023/04/01 03:42:19;;;;;;;5.13;1.37;;;;;;;11.28;97.29;98481.81;5018879;28;20456;-53
2023/04/01 03:44:46;;;;;;;1.03;0.63;;;;;;;11.41;95.91;98490.78;5023561;28;20551;-53
2023/04/01 03:47:12;;;;;;;2.57;0.67;;;;;;;11.34;95.99;98485.91;5025260;28;20464;-53
2023/04/01 03:49:38;;;;;;;1.20;0.80;;;;;;;11.10;97.40;98488.22;5019629;28;20495;-54
2023/04/01 03:52:09;;;;;;;0.67;0.30;;;;;;;11.39;96.60;98482.03;5009504;28;20464;-53
2023/04/01 03:54:35;;;;;;;0.30;0.20;;;;;;;11.37;96.36;98481.25;5020551;28;20475;-54
2023/04/01 03:57:02;;;;;;;1.57;0.67;;;;;;;11.22;96.72;98483.03;5018700;28;20504;-53
2023/04/01 03:59:29;;;;;;;0.70;0.50;;;;;;;11.34;96.23;98486.75;5029963;28;20590;-52
2023/04/01 04:01:55;;;;;;;0.40;0.27;;;;;;;11.38;96.73;98490.97;5002759;28;20520;-53
2023/04/01 04:04:21;;;;;;;0.60;0.50;;;;;;;11.30;97.03;98487.91;5019985;28;20480;-54
2023/04/01 04:06:48;;;;;;;0.43;0.30;;;;;;;11.26;97.57;98484.59;5018013;28;20452;-53
2023/04/01 04:09:14;;;;;;;2.83;1.03;;;;;;;11.12;97.84;98495.19;5022933;28;20492;-53
2023/04/01 04:11:41;;;;;;;13.53;1.80;;;;;;;11.20;98.20;98492.06;5025315;28;20491;-53
2023/04/01 04:14:07;;;;;;;0.40;0.30;;;;;;;11.18;98.05;98502.78;5019476;28;21015;-53
2023/04/01 04:16:37;;;;;;;0.50;0.20;;;;;;;11.07;98.28;98494.59;5017927;28;20528;-54
2023/04/01 04:19:03;;;;;;;1.43;1.33;;;;;;;11.13;98.40;98496.91;5022381;28;20449;-53
2023/04/01 04:21:30;;;;;;;2.53;0.30;;;;;;;11.02;99.09;98498.50;5024233;28;20503;-53
2023/04/01 04:23:58;;;;;;;0.30;0.20;;;;;;;11.11;98.56;98501.47;5020540;28;20468;-54
2023/04/01 04:26:25;;;;;;;0.30;0.20;;;;;;;11.06;98.95;98498.19;5018049;28;20884;-53
2023/04/01 04:28:52;;;;;;;0.60;0.40;;;;;;;11.18;99.17;98501.94;5022963;28;20499;-53
2023/04/01 04:31:20;;;;;;;0.40;0.30;;;;;;;11.19;99.24;98501.84;5027358;28;20452;-53
2023/04/01 04:33:47;;;;;;;9.03;1.30;;;;;;;10.88;99.41;98501.97;5021315;28;20857;-53
2023/04/01 04:36:13;;;;;;;0.87;0.40;;;;;;;10.93;98.99;98498.06;5017638;28;20851;-53
2023/04/01 04:38:40;;;;;;;0.60;0.60;;;;;;;11.00;99.50;98505.69;5020018;28;20456;-54
2023/04/01 04:41:14;;;;;;;0.63;0.37;;;;;;;11.07;99.12;98493.75;5023847;28;20463;-53
2023/04/01 04:43:41;;;;;;;1.57;1.47;;;;;;;11.17;99.13;98506.41;5022938;28;20470;-54
2023/04/01 04:46:09;;;;;;;1.60;0.63;;;;;;;11.07;99.18;98494.59;5017191;28;20951;-52
2023/04/01 04:48:36;;;;;;;4.93;0.60;;;;;;;10.87;100.00;98489.63;5018386;28;20453;-52
2023/04/01 04:51:03;;;;;;;0.43;0.40;;;;;;;11.03;99.60;98494.88;5023437;28;20452;-52
2023/04/01 04:53:29;;;;;;;5.20;0.40;;;;;;;10.92;99.07;98499.03;5003579;28;20481;-53
2023/04/01 04:55:55;;;;;;;2.87;0.60;;;;;;;11.11;98.81;98501.47;5024057;28;20523;-53
2023/04/01 04:58:22;;;;;;;0.50;0.47;;;;;;;11.08;99.16;98490.13;5023601;28;20513;-53
2023/04/01 05:00:48;;;;;;;2.10;0.37;;;;;;;11.18;98.60;98497.47;5028381;28;20451;-53
2023/04/01 05:03:15;;;;;;;2.37;0.60;;;;;;;11.00;99.43;98495.06;5017403;28;20480;-53
2023/04/01 05:05:49;;;;;;;0.40;0.30;;;;;;;11.01;98.34;98484.34;5023650;28;21062;-53
2023/04/01 05:08:15;;;;;;;0.57;0.40;;;;;;;10.95;97.90;98487.34;5023538;28;20454;-53
2023/04/01 05:10:42;;;;;;;2.00;0.50;;;;;;;10.93;98.43;98490.09;5018095;28;20496;-52
2023/04/01 05:15:37;;;;;;;0.40;0.30;;;;;;;10.92;98.46;98490.19;5036913;28;20490;-55
2023/04/01 05:18:03;;;;;;;0.40;0.30;;;;;;;10.93;98.37;98492.75;5049709;28;20454;-55
2023/04/01 05:20:30;;;;;;;0.40;0.30;;;;;;;10.86;98.79;98483.44;5049692;28;20451;-56
2023/04/01 05:22:57;;;;;;;0.30;0.20;;;;;;;10.76;98.62;98500.00;5049430;28;20461;-55
2023/04/01 05:25:24;;;;;;;0.87;0.50;;;;;;;10.98;98.09;98492.50;5041092;28;20478;-55
2023/04/01 05:27:51;;;;;;;1.80;1.67;;;;;;;11.12;97.64;98495.19;5045111;28;20500;-56
2023/04/01 05:30:17;;;;;;;2.50;0.60;;;;;;;11.15;97.82;98499.47;5045046;28;20498;-55
2023/04/01 05:32:44;;;;;;;0.40;0.30;;;;;;;10.94;98.19;98496.25;5049546;28;20455;-55
2023/04/01 05:35:11;;;;;;;0.30;0.20;;;;;;;10.78;97.70;98490.16;5049267;28;20747;-55
2023/04/01 05:37:37;;;;;;;10.20;1.03;;;;;;;11.00;98.48;98495.06;5049471;28;20883;-55
2023/04/01 05:40:04;;;;;;;13.33;0.70;;;;;;;10.89;98.20;98487.72;5049293;28;20446;-55
2023/04/01 05:42:31;;;;;;;0.40;0.27;;;;;;;10.98;97.78;98487.19;5047899;28;20455;-55
2023/04/01 05:44:57;;;;;;;0.50;0.50;;;;;;;11.00;97.97;98495.06;5039711;28;20862;-55
2023/04/01 05:47:23;;;;;;;0.50;0.40;;;;;;;10.86;98.52;98486.09;5045064;28;20458;-55
2023/04/01 05:49:50;;;;;;;3.23;0.43;;;;;;;10.97;97.90;98481.00;5049053;28;20859;-55
2023/04/01 05:52:16;;;;;;;0.30;0.20;;;;;;;11.11;97.71;98489.97;5041496;28;20463;-55
2023/04/01 05:54:43;;;;;;;6.37;0.57;;;;;;;11.11;97.03;98485.50;5049083;28;20554;-55
2023/04/01 05:57:09;;;;;;;0.50;0.20;;;;;;;11.10;97.00;98472.28;5049027;28;20450;-55
2023/04/01 05:59:36;;;;;;;0.30;0.20;;;;;;;11.06;96.78;98484.91;5041170;28;20447;-55
2023/04/01 06:02:02;;;;;;;0.40;0.30;;;;;;;11.10;97.60;98483.81;5044925;28;20454;-55
2023/04/01 06:04:37;;;;;;;2.23;0.67;;;;;;;11.17;97.42;98478.97;5048691;28;20485;-55
2023/04/01 06:07:14;;;;;;;0.37;0.20;;;;;;;11.18;96.74;98478.84;5048915;28;20465;-55
2023/04/01 06:09:41;;;;;;;0.30;0.20;;;;;;;11.22;97.48;98475.06;5048704;28;20513;-55
2023/04/01 06:12:27;;;;;;;0.73;0.70;;;;;;;11.03;98.13;98478.94;5047528;28;20446;-55
2023/04/01 06:15:34;;;;;;;0.30;0.30;;;;;;;11.11;98.51;98482.00;5048131;28;20475;-54
2023/04/01 06:18:35;;;;;;;2.23;0.70;;;;;;;11.07;98.63;98480.44;5048668;28;20543;-53
2023/04/01 06:21:31;;;;;;;0.30;0.20;;;;;;;11.02;99.94;98490.50;5048533;28;20454;-54
2023/04/01 06:24:26;;;;;;;0.30;0.20;;;;;;;10.97;100.00;98483.69;5008061;28;20484;-54
2023/04/01 06:27:13;;;;;;;0.30;0.20;;;;;;;10.89;100.00;98487.72;5022689;28;20458;-54
2023/04/01 06:29:54;;;;;;;0.30;0.20;;;;;;;10.98;100.00;98489.84;5043352;28;20494;-54
2023/04/01 06:32:58;;;;;;;0.40;0.30;;;;;;;11.06;100.00;98490.22;5048567;28;20450;-55
2023/04/01 06:35:38;;;;;;;0.30;0.20;;;;;;;11.13;100.00;98491.59;5029968;28;20486;-55
2023/04/01 06:38:04;;;;;;;0.30;0.20;;;;;;;11.14;100.00;98485.31;5048458;28;20450;-55
2023/04/01 06:41:10;;;;;;;0.30;0.20;;;;;;;11.16;100.00;98483.41;5048454;28;20450;-56
2023/04/01 06:43:59;;;;;;;0.43;0.20;;;;;;;11.19;100.00;98479.72;5030654;28;20467;-55
2023/04/01 06:46:34;;;;;;;0.30;0.20;;;;;;;11.11;100.00;98474.03;5024996;28;20453;-56
2023/04/01 06:49:15;;;;;;;0.30;0.20;;;;;;;11.20;100.00;98476.09;5048190;28;20450;-56
2023/04/01 06:51:47;;;;;;;3.40;0.40;;;;;;;11.36;100.00;98473.38;5042125;28;20459;-56
2023/04/01 06:54:37;;;;;;;0.40;0.40;;;;;;;11.26;100.00;98470.44;5046785;28;20493;-56
2023/04/01 06:57:18;;;;;;;0.60;0.60;;;;;;;11.46;100.00;98471.88;5046753;28;20457;-56
2023/04/01 06:59:45;;;;;;;0.30;0.20;;;;;;;11.57;100.00;98472.91;5038965;28;20447;-56
2023/04/01 07:02:19;;;;;;;0.40;0.30;;;;;;;11.74;99.82;98471.88;5045349;28;20462;-54
2023/04/01 07:04:52;;;;;;;0.40;0.20;;;;;;;11.63;100.00;98471.66;5048023;28;20470;-54
2023/04/01 07:07:41;;;;;;;0.40;0.30;;;;;;;11.74;99.36;98473.66;5048478;28;20891;-56
2023/04/01 07:10:19;;;;;;;0.70;0.70;;;;;;;11.87;98.50;98477.31;5048244;28;21174;-56
2023/04/01 07:13:00;;;;;;;0.30;0.20;;;;;;;11.75;98.21;98478.03;5048633;28;20446;-56
2023/04/01 07:15:47;;;;;;;0.40;0.20;;;;;;;11.78;98.85;98473.38;5047672;28;20486;-56
2023/04/01 07:18:32;;;;;;;0.87;0.50;;;;;;;11.99;97.74;98487.19;5047839;28;20456;-57
2023/04/01 07:20:59;;;;;;;0.50;0.40;;;;;;;11.96;98.20;98486.53;5048110;28;20447;-56
2023/04/01 07:23:32;;;;;;;0.40;0.40;;;;;;;11.91;98.43;98484.13;5047757;28;20854;-57
2023/04/01 07:26:03;;;;;;;0.33;0.20;;;;;;;11.95;98.08;98484.81;5048647;28;20459;-57
2023/04/01 07:28:33;;;;;;;0.30;0.20;;;;;;;11.94;97.30;98491.09;5048293;28;20446;-56
2023/04/01 07:31:19;;;;;;;0.50;0.30;;;;;;;11.93;97.71;98484.06;5042005;28;21058;-56
2023/04/01 07:33:52;;;;;;;1.17;0.60;;;;;;;11.89;98.02;98487.84;5047809;28;20525;-56
2023/04/01 07:36:44;;;;;;;0.30;0.23;;;;;;;12.06;97.57;98500.94;5049922;28;20442;-56
2023/04/01 07:39:29;;;;;;;1.50;0.30;;;;;;;12.14;97.54;98501.34;5051539;28;20902;-56
2023/04/01 07:42:03;;;;;;;0.60;0.30;;;;;;;12.12;97.20;98508.56;5051581;28;20450;-56
2023/04/01 07:44:54;;;;;;;1.13;0.30;;;;;;;12.16;97.45;98502.94;5045671;28;20463;-56
2023/04/01 07:47:29;;;;;;;3.33;0.73;;;;;;;12.29;97.42;98508.34;5047215;28;20537;-56
2023/04/01 07:50:11;;;;;;;0.40;0.30;;;;;;;12.05;97.66;98510.75;5051420;28;20516;-56
2023/04/01 07:52:55;;;;;;;0.30;0.20;;;;;;;12.18;97.99;98520.63;5043684;28;20577;-56
2023/04/01 07:55:29;;;;;;;12.30;0.73;;;;;;;12.10;98.63;98510.47;5051240;28;20844;-56
2023/04/01 07:58:31;;;;;;;0.47;0.37;;;;;;;12.21;97.86;98518.66;5051294;28;20457;-56
2023/04/01 08:01:01;;;;;;;1.90;0.40;;;;;;;12.05;99.20;98518.75;5037533;28;20447;-56
2023/04/01 08:04:05;;;;;;;0.40;0.20;;;;;;;12.16;98.05;98524.25;5050989;28;20481;-56
2023/04/01 08:06:44;;;;;;;0.30;0.20;;;;;;;12.13;98.31;98524.44;5051120;28;20477;-57
2023/04/01 08:09:37;;;;;;;0.40;0.30;;;;;;;12.22;98.82;98524.84;5025969;28;20476;-56
2023/04/01 08:12:12;;;;;;;5.40;0.80;;;;;;;12.04;99.60;98525.03;5050539;28;20936;-56
2023/04/01 08:15:04;;;;;;;0.63;0.60;;;;;;;12.09;99.29;98522.94;5050533;28;20490;-57
2023/04/01 08:17:40;;;;;;;0.30;0.20;;;;;;;12.35;98.86;98523.94;5029857;28;20447;-56
2023/04/01 08:20:19;;;;;;;0.47;0.47;;;;;;;12.09;99.58;98528.28;5050948;28;20504;-56
2023/04/01 08:22:50;;;;;;;0.47;0.37;;;;;;;12.30;99.23;98528.69;5050615;28;20876;-56
2023/04/01 08:25:25;;;;;;;0.40;0.20;;;;;;;12.33;98.84;98535.63;5024433;28;20509;-56
2023/04/01 08:28:14;;;;;;;0.30;0.20;;;;;;;12.26;98.56;98540.50;5050487;28;20458;-56
2023/04/01 08:31:01;;;;;;;1.80;0.30;;;;;;;12.44;98.62;98536.66;5044709;28;20494;-56
2023/04/01 08:33:30;;;;;;;0.70;0.40;;;;;;;12.72;98.63;98541.06;5024826;28;20467;-56
2023/04/01 08:36:02;;;;;;;0.30;0.20;;;;;;;12.62;97.18;98537.31;5050202;28;20454;-56
2023/04/01 08:38:34;;;;;;;0.30;0.20;;;;;;;12.79;97.28;98540.66;5050274;28;20451;-56
2023/04/01 08:41:10;;;;;;;0.30;0.20;;;;;;;12.78;97.14;98545.16;5050447;28;21007;-56
2023/04/01 08:43:51;;;;;;;0.30;0.20;;;;;;;12.89;96.79;98552.44;5050241;28;20493;-56
2023/04/01 08:46:40;;;;;;;0.30;0.20;;;;;;;12.80;97.39;98543.22;5023956;28;20447;-56
2023/04/01 08:49:33;;;;;;;0.60;0.30;;;;;;;12.70;98.09;98544.78;5049891;28;21010;-56
2023/04/01 08:52:26;;;;;;;0.30;0.20;;;;;;;12.77;98.12;98545.25;5042500;28;20460;-55
2023/04/01 08:55:26;;;;;;;0.60;0.30;;;;;;;12.83;97.35;98552.84;5049976;28;20481;-56
2023/04/01 08:58:01;;;;;;;0.43;0.27;;;;;;;12.83;98.65;98550.16;5026140;28;20897;-57
2023/04/01 09:00:46;;;;;;;0.30;0.20;;;;;;;12.67;99.87;98551.16;5038711;28;20450;-55
2023/04/01 09:03:44;;;;;;;0.30;0.20;;;;;;;12.62;100.00;98555.97;5049874;28;20451;-56
2023/04/01 09:06:45;;;;;;;0.40;0.23;;;;;;;12.59;100.00;98561.47;5030920;28;20900;-56
2023/04/01 09:09:23;;;;;;;0.40;0.30;;;;;;;12.63;100.00;98565.66;5027246;28;20512;-56
2023/04/01 09:12:22;;;;;;;0.40;0.30;;;;;;;12.61;100.00;98558.69;5049446;28;20530;-55
2023/04/01 09:15:00;;;;;;;0.30;0.20;;;;;;;12.81;99.14;98547.59;5037985;28;20486;-56
2023/04/01 09:17:55;;;;;;;0.33;0.23;;;;;;;13.00;98.61;98556.09;5049628;28;20455;-56
2023/04/01 09:21:12;;;;;;;0.40;0.20;;;;;;;13.04;98.62;98559.44;5023858;28;20936;-55
2023/04/01 09:23:54;;;;;;;0.30;0.20;;;;;;;13.16;97.31;98566.63;5023321;28;20470;-55
2023/04/01 09:26:35;;;;;;;0.30;0.20;;;;;;;13.46;96.96;98574.41;5049159;28;20458;-55
2023/04/01 09:29:17;;;;;;;0.70;0.40;;;;;;;13.55;96.90;98563.06;5046053;28;20825;-56
2023/04/01 09:32:07;;;;;;;0.30;0.20;;;;;;;13.37;97.03;98563.47;5023579;28;20910;-56
2023/04/01 09:34:54;;;;;;;0.30;0.20;;;;;;;13.59;95.79;98579.75;5048963;28;20475;-56
2023/04/01 09:37:29;;;;;;;0.50;0.50;;;;;;;13.59;95.25;98571.75;5049350;28;20451;-56
2023/04/01 09:40:18;;;;;;;0.40;0.20;;;;;;;13.50;95.40;98570.56;5024972;28;20453;-55
2023/04/01 09:43:01;;;;;;;0.40;0.20;;;;;;;13.58;96.43;98575.38;5049130;28;20500;-55
2023/04/01 09:45:42;;;;;;;0.30;0.20;;;;;;;13.45;96.83;98574.50;5035906;28;20907;-56
2023/04/01 09:48:24;;;;;;;0.30;0.20;;;;;;;13.61;97.35;98581.34;5026729;28;20970;-55
2023/04/01 09:51:23;;;;;;;0.40;0.30;;;;;;;13.33;98.93;98587.72;5047450;28;21294;-56
2023/04/01 09:54:17;;;;;;;0.30;0.20;;;;;;;13.45;98.02;98585.19;5010410;28;20875;-56
2023/04/01 09:57:05;;;;;;;0.30;0.20;;;;;;;13.48;97.55;98583.16;5048896;28;20982;-56
2023/04/01 09:59:49;;;;;;;0.33;0.20;;;;;;;13.42;97.32;98588.88;5019643;28;20455;-55
2023/04/01 10:02:28;;;;;;;0.30;0.20;;;;;;;13.57;97.43;98590.53;5047564;28;20447;-55
2023/04/01 10:05:36;;;;;;;13.33;0.60;;;;;;;13.66;97.79;98589.03;5048764;28;20467;-55
2023/04/01 10:08:12;;;;;;;0.50;0.33;;;;;;;13.55;97.75;98600.44;5033458;28;20442;-56
2023/04/01 10:10:57;;;;;;;0.30;0.20;;;;;;;13.39;98.07;98598.94;5022785;28;20501;-56
2023/04/01 10:13:42;;;;;;;0.40;0.30;;;;;;;13.45;98.91;98599.38;5048250;28;20989;-56
2023/04/01 10:16:11;;;;;;;2.00;0.50;;;;;;;13.60;98.29;98601.00;5048414;28;20447;-55
2023/04/01 10:18:53;;;;;;;0.30;0.20;;;;;;;13.50;98.64;98601.72;5048314;28;20451;-56
2023/04/01 10:21:31;;;;;;;0.30;0.20;;;;;;;13.33;98.79;98603.72;5048370;28;20450;-56
2023/04/01 10:24:27;;;;;;;0.30;0.20;;;;;;;13.13;98.72;98598.81;5048553;28;20471;-55
2023/04/01 10:27:22;;;;;;;0.40;0.20;;;;;;;13.33;99.20;98600.19;5022444;28;20454;-55
2023/04/01 10:30:22;;;;;;;0.40;0.20;;;;;;;13.26;98.74;98607.75;5043057;28;20505;-55
2023/04/01 10:33:18;;;;;;;0.40;0.30;;;;;;;13.41;98.90;98608.53;5048035;28;20514;-56
2023/04/01 10:36:17;;;;;;;0.30;0.20;;;;;;;13.26;100.00;98607.75;5048766;28;20442;-55
2023/04/01 10:39:03;;;;;;;0.30;0.20;;;;;;;13.15;100.00;98614.72;5030496;28;20429;-55
2023/04/01 10:42:12;;;;;;;0.40;0.30;;;;;;;13.05;100.00;98606.47;5022136;28;20469;-55
2023/04/01 10:45:16;;;;;;;0.50;0.30;;;;;;;13.04;100.00;98602.97;5041421;28;20495;-55
2023/04/01 10:48:16;;;;;;;0.30;0.20;;;;;;;13.23;100.00;98613.28;5046747;28;20920;-56
2023/04/01 10:51:01;;;;;;;0.47;0.30;;;;;;;13.35;100.00;98606.28;5048164;28;20494;-55
2023/04/01 10:53:43;;;;;;;0.87;0.87;;;;;;;13.45;100.00;98610.06;5031850;28;20467;-56
2023/04/01 10:56:35;;;;;;;0.40;0.30;;;;;;;13.30;100.00;98600.41;5023474;28;20457;-55
2023/04/01 10:59:08;;;;;;;0.90;0.20;;;;;;;13.48;100.00;98607.19;5044389;28;20918;-56
2023/04/01 11:01:53;;;;;;;0.30;0.23;;;;;;;13.37;100.00;98604.38;5040415;28;20463;-56
2023/04/01 11:05:00;;;;;;;0.40;0.30;;;;;;;13.41;100.00;98603.19;5028471;28;20477;-56
2023/04/01 11:07:30;;;;;;;0.40;0.30;;;;;;;13.42;100.00;98610.25;5022306;28;20469;-55
2023/04/01 11:10:21;;;;;;;0.30;0.20;;;;;;;13.52;100.00;98615.81;5048004;28;20458;-56
2023/04/01 11:13:04;;;;;;;0.40;0.30;;;;;;;13.52;100.00;98627.34;5051863;28;20473;-56
2023/04/01 11:15:49;;;;;;;0.40;0.23;;;;;;;13.32;100.00;98612.69;5051759;28;20464;-55
2023/04/01 11:18:24;;;;;;;3.30;0.50;;;;;;;13.57;100.00;98605.72;5051782;28;20446;-55
2023/04/01 11:21:09;;;;;;;0.30;0.20;;;;;;;13.39;100.00;98607.78;5052383;28;20442;-55
2023/04/01 11:24:08;;;;;;;0.40;0.30;;;;;;;13.41;100.00;98599.66;5051895;28;20470;-56
2023/04/01 11:26:44;;;;;;;0.40;0.30;;;;;;;13.55;100.00;98607.59;5057048;22;20498;-56
2023/04/01 11:29:18;;;;;;;1.90;0.30;;;;;;;13.40;100.00;98613.97;5040455;28;20541;-55
2023/04/01 11:31:58;;;;;;;0.40;0.20;;;;;;;13.73;100.00;98618.88;5045317;28;20496;-56
2023/04/01 11:34:46;;;;;;;0.30;0.20;;;;;;;13.58;100.00;98615.44;5045836;28;20455;-56
2023/04/01 11:37:22;;;;;;;0.30;0.20;;;;;;;13.79;100.00;98624.63;5023263;28;20451;-56
2023/04/01 11:40:07;;;;;;;0.40;0.30;;;;;;;13.84;100.00;98621.63;5018222;28;20596;-55
2023/04/01 11:42:54;;;;;;;0.50;0.30;;;;;;;13.98;100.00;98618.00;5018634;28;20458;-55
2023/04/01 11:45:39;;;;;;;0.30;0.20;;;;;;;13.97;100.00;98619.81;5032086;28;21289;-55
2023/04/01 11:48:22;;;;;;;0.30;0.20;;;;;;;14.09;100.00;98620.78;5008724;28;20459;-55
2023/04/01 11:51:19;;;;;;;0.30;0.20;;;;;;;14.19;100.00;98624.53;5018559;28;20501;-56
2023/04/01 11:54:15;;;;;;;0.40;0.30;;;;;;;13.88;100.00;98626.69;5025240;28;20463;-55
2023/04/01 11:56:59;;;;;;;0.30;0.20;;;;;;;14.07;100.00;98634.25;5024061;28;20482;-55
2023/04/01 11:59:44;;;;;;;0.40;0.30;;;;;;;13.98;100.00;98636.72;5001748;28;20449;-55
2023/04/01 12:02:25;;;;;;;0.30;0.20;;;;;;;14.03;100.00;98642.63;5025040;28;20510;-55
2023/04/01 12:04:58;;;;;;;0.30;0.20;;;;;;;13.94;100.00;98641.41;5023797;28;20458;-56
2023/04/01 12:07:42;;;;;;;0.50;0.40;;;;;;;13.95;100.00;98651.13;5024847;28;20467;-55
2023/04/01 12:10:25;;;;;;;0.40;0.20;;;;;;;14.00;100.00;98650.84;5026948;28;20480;-55
2023/04/01 12:13:16;;;;;;;0.40;0.20;;;;;;;13.75;100.00;98657.00;5022515;28;20452;-55
2023/04/01 12:15:53;;;;;;;0.60;0.50;;;;;;;13.78;100.00;98660.31;5009633;28;20453;-55
2023/04/01 12:18:42;;;;;;;0.30;0.20;;;;;;;13.50;100.00;98663.13;5017958;28;20447;-55